createdAt,value
2022-10-04T00:00:25.171Z,7.00
2022-10-04T00:02:53.721Z,7.00
2022-10-04T00:05:22.222Z,6.90
2022-10-04T00:07:57.742Z,7.00
2022-10-04T00:10:34.095Z,7.00
2022-10-04T00:13:04.210Z,7.10
2022-10-04T00:15:33.571Z,7.10
2022-10-04T00:18:11.590Z,7.10
2022-10-04T00:20:51.690Z,7.10
2022-10-04T00:23:24.975Z,7.10
2022-10-04T00:25:53.031Z,7.10
2022-10-04T00:28:20.262Z,7.10
2022-10-04T00:31:24.907Z,7.20
2022-10-04T00:34:04.115Z,7.20
2022-10-04T00:36:32.092Z,7.20
2022-10-04T00:39:05.193Z,7.30
2022-10-04T00:41:48.858Z,7.30
2022-10-04T00:44:34.031Z,7.30
2022-10-04T00:47:01.849Z,7.40
2022-10-04T00:49:39.294Z,7.40
2022-10-04T00:52:19.013Z,7.40
2022-10-04T00:54:54.917Z,7.40
2022-10-04T00:57:28.163Z,7.40
2022-10-04T01:00:07.889Z,7.40
2022-10-04T01:02:47.831Z,7.40
2022-10-04T01:05:26.473Z,7.40
2022-10-04T01:08:18.582Z,7.30
2022-10-04T01:10:56.434Z,7.30
2022-10-04T01:13:45.973Z,7.20
2022-10-04T01:16:16.313Z,7.20
2022-10-04T01:18:43.560Z,7.20
2022-10-04T01:21:19.723Z,7.20
2022-10-04T01:23:46.859Z,7.20
2022-10-04T01:26:37.846Z,7.20
2022-10-04T01:29:26.290Z,7.20
2022-10-04T01:31:55.051Z,7.00
2022-10-04T01:34:23.491Z,7.00
2022-10-04T01:36:52.761Z,7.00
2022-10-04T01:39:20.550Z,7.00
2022-10-04T01:42:06.826Z,7.00
2022-10-04T01:44:37.510Z,7.00
2022-10-04T01:47:08.612Z,6.90
2022-10-04T01:49:36.986Z,6.80
2022-10-04T01:52:07.811Z,6.80
2022-10-04T01:54:37.476Z,6.80
2022-10-04T01:57:12.927Z,6.70
2022-10-04T02:00:01.792Z,6.70
2022-10-04T02:02:39.396Z,6.70
2022-10-04T02:05:08.734Z,6.60
2022-10-04T02:07:36.819Z,6.70
2022-10-04T02:10:06.834Z,6.60
2022-10-04T02:12:34.767Z,6.60
2022-10-04T02:15:03.475Z,6.60
2022-10-04T02:17:32.158Z,6.60
2022-10-04T02:19:59.682Z,6.60
2022-10-04T02:22:26.871Z,6.60
2022-10-04T02:24:55.231Z,6.60
2022-10-04T02:27:27.530Z,6.60
2022-10-04T02:30:03.658Z,6.60
2022-10-04T02:32:50.908Z,6.50
2022-10-04T02:35:18.334Z,6.50
2022-10-04T02:37:46.344Z,6.50
2022-10-04T02:40:15.371Z,6.60
2022-10-04T02:43:03.064Z,6.60
2022-10-04T02:45:37.433Z,6.60
2022-10-04T02:48:33.575Z,6.60
2022-10-04T02:51:15.264Z,6.60
2022-10-04T02:53:54.642Z,6.50
2022-10-04T02:56:22.238Z,6.50
2022-10-04T02:58:49.399Z,6.50
2022-10-04T03:01:54.874Z,6.40
2022-10-04T03:04:24.490Z,6.40
2022-10-04T03:06:51.668Z,6.40
2022-10-04T03:09:20.598Z,6.30
2022-10-04T03:11:47.777Z,6.30
2022-10-04T03:14:18.466Z,6.30
2022-10-04T03:16:45.799Z,6.30
2022-10-04T03:19:13.367Z,6.20
2022-10-04T03:21:40.884Z,6.20
2022-10-04T03:24:09.755Z,6.10
2022-10-04T03:26:47.129Z,6.10
2022-10-04T03:29:14.850Z,6.10
2022-10-04T03:31:44.230Z,6.00
2022-10-04T03:34:37.166Z,6.00
2022-10-04T03:37:07.051Z,6.10
2022-10-04T03:39:38.756Z,6.10
2022-10-04T03:42:10.727Z,6.10
2022-10-04T03:44:37.885Z,6.20
2022-10-04T03:47:11.851Z,6.10
2022-10-04T03:49:39.023Z,6.10
2022-10-04T03:52:06.203Z,6.10
2022-10-04T03:54:33.352Z,6.10
2022-10-04T03:57:00.521Z,6.00
2022-10-04T03:59:27.691Z,6.00
2022-10-04T04:02:12.743Z,6.00
2022-10-04T04:05:02.108Z,6.10
2022-10-04T04:07:39.059Z,6.10
2022-10-04T04:10:23.139Z,6.00
2022-10-04T04:12:53.101Z,5.90
2022-10-04T04:15:20.316Z,5.90
2022-10-04T04:17:48.436Z,5.90
2022-10-04T04:20:20.331Z,5.90
2022-10-04T04:22:55.720Z,5.80
2022-10-04T04:25:23.540Z,5.80
2022-10-04T04:27:50.960Z,5.80
2022-10-04T04:30:18.388Z,5.80
2022-10-04T04:32:49.146Z,5.80
2022-10-04T04:35:31.257Z,5.80
2022-10-04T04:38:14.511Z,5.90
2022-10-04T04:40:41.737Z,5.90
2022-10-04T04:43:11.394Z,5.90
2022-10-04T04:45:38.968Z,5.90
2022-10-04T04:48:07.114Z,5.80
2022-10-04T04:50:37.773Z,5.80
2022-10-04T04:53:24.874Z,5.70
2022-10-04T04:56:04.640Z,5.70
2022-10-04T04:58:41.478Z,5.60
2022-10-04T05:01:14.693Z,5.60
2022-10-04T05:03:42.342Z,5.60
2022-10-04T05:06:42.129Z,5.60
2022-10-04T05:09:25.729Z,5.50
2022-10-04T05:11:53.899Z,5.50
2022-10-04T05:14:21.106Z,5.50
2022-10-04T05:16:52.822Z,5.60
2022-10-04T05:19:21.645Z,5.60
2022-10-04T05:21:49.793Z,5.60
2022-10-04T05:24:33.400Z,5.50
2022-10-04T05:27:08.713Z,5.40
2022-10-04T05:29:37.755Z,5.40
2022-10-04T05:32:11.046Z,5.50
2022-10-04T05:34:40.068Z,5.40
2022-10-04T05:37:51.214Z,5.50
2022-10-04T05:40:24.104Z,5.50
2022-10-04T05:42:51.285Z,5.50
2022-10-04T05:45:23.358Z,5.50
2022-10-04T05:47:52.296Z,5.60
2022-10-04T05:50:32.098Z,5.70
2022-10-04T05:53:46.724Z,5.70
2022-10-04T05:56:55.219Z,5.80
2022-10-04T05:59:51.872Z,5.90
2022-10-04T06:02:41.426Z,5.90
2022-10-04T06:05:19.174Z,6.00
2022-10-04T06:07:54.227Z,6.10
2022-10-04T06:10:28.600Z,6.10
2022-10-04T06:13:39.742Z,6.20
2022-10-04T06:16:36.114Z,6.30
2022-10-04T06:19:06.393Z,6.40
2022-10-04T06:21:57.634Z,6.50
2022-10-04T06:24:29.562Z,6.50
2022-10-04T06:27:04.306Z,6.60
2022-10-04T06:29:35.606Z,6.70
2022-10-04T06:32:08.866Z,6.80
2022-10-04T06:34:51.867Z,6.80
2022-10-04T06:37:34.198Z,6.90
2022-10-04T06:40:25.910Z,7.00
2022-10-04T06:43:08.236Z,7.00
2022-10-04T06:45:44.188Z,7.10
2022-10-04T06:49:13.903Z,7.20
2022-10-04T06:51:56.614Z,7.30
2022-10-04T06:54:47.935Z,7.40
2022-10-04T06:57:47.457Z,7.50
2022-10-04T07:00:24.478Z,7.50
2022-10-04T07:03:17.291Z,7.60
2022-10-04T07:06:01.373Z,7.60
2022-10-04T07:08:41.690Z,7.80
2022-10-04T07:11:22.080Z,7.90
2022-10-04T07:13:53.691Z,7.90
2022-10-04T07:16:45.407Z,8.00
2022-10-04T07:19:32.099Z,8.10
2022-10-04T07:22:08.226Z,8.20
2022-10-04T07:25:20.904Z,8.30
2022-10-04T07:28:16.640Z,8.40
2022-10-04T07:31:14.243Z,8.50
2022-10-04T07:33:50.498Z,8.60
2022-10-04T07:36:21.948Z,8.80
2022-10-04T07:38:53.067Z,8.80
2022-10-04T07:41:23.168Z,8.90
2022-10-04T07:43:52.592Z,9.00
2022-10-04T07:46:43.351Z,9.10
2022-10-04T07:49:28.770Z,9.20
2022-10-04T07:52:12.963Z,9.30
2022-10-04T07:55:29.120Z,9.40
2022-10-04T07:58:07.277Z,9.50
2022-10-04T08:00:55.292Z,9.50
2022-10-04T08:03:35.923Z,9.60
2022-10-04T08:06:31.231Z,9.70
2022-10-04T08:09:17.396Z,9.70
2022-10-04T08:12:02.677Z,9.80
2022-10-04T08:15:07.358Z,9.80
2022-10-04T08:18:02.287Z,9.90
2022-10-04T08:20:45.060Z,10.00
2022-10-04T08:23:26.826Z,10.10
2022-10-04T08:25:59.855Z,10.10
2022-10-04T08:29:17.216Z,10.20
2022-10-04T08:32:05.563Z,10.30
2022-10-04T08:34:44.955Z,10.40
2022-10-04T08:37:29.887Z,10.50
2022-10-04T08:40:18.406Z,10.60
2022-10-04T08:43:07.767Z,10.70
2022-10-04T08:46:10.420Z,10.80
2022-10-04T08:48:47.035Z,10.90
2022-10-04T08:51:41.485Z,11.00
2022-10-04T08:54:36.539Z,11.00
2022-10-04T08:57:43.326Z,11.10
2022-10-04T09:00:26.448Z,11.10
2022-10-04T09:03:11.808Z,11.20
2022-10-04T09:05:47.992Z,11.30
2022-10-04T09:08:26.621Z,11.40
2022-10-04T09:11:22.014Z,11.50
2022-10-04T09:14:03.436Z,11.60
2022-10-04T09:16:43.064Z,11.60
2022-10-04T09:19:29.116Z,11.70
2022-10-04T09:21:56.256Z,11.80
2022-10-04T09:24:48.292Z,11.90
2022-10-04T09:27:53.134Z,12.00
2022-10-04T09:30:21.014Z,12.10
2022-10-04T09:33:03.837Z,12.10
2022-10-04T09:36:08.457Z,12.10
2022-10-04T09:39:29.575Z,12.20
2022-10-04T09:42:19.492Z,12.30
2022-10-04T09:45:14.333Z,12.40
2022-10-04T09:48:02.577Z,12.40
2022-10-04T09:50:56.884Z,12.50
2022-10-04T09:53:58.167Z,12.60
2022-10-04T09:56:37.375Z,12.80
2022-10-04T09:59:27.016Z,12.80
2022-10-04T10:02:16.072Z,12.90
2022-10-04T10:04:52.103Z,12.90
2022-10-04T10:07:22.015Z,12.90
2022-10-04T10:10:42.114Z,13.00
2022-10-04T10:13:34.551Z,13.00
2022-10-04T10:16:19.912Z,13.00
2022-10-04T10:19:12.930Z,13.10
2022-10-04T10:22:22.414Z,13.10
2022-10-04T10:25:01.559Z,13.10
2022-10-04T10:27:47.826Z,13.10
2022-10-04T10:30:20.857Z,13.20
2022-10-04T10:33:01.138Z,13.20
2022-10-04T10:35:37.231Z,13.20
2022-10-04T10:38:32.114Z,13.20
2022-10-04T10:41:12.832Z,13.30
2022-10-04T10:43:46.380Z,13.40
2022-10-04T10:46:43.024Z,13.40
2022-10-04T10:49:34.848Z,13.40
2022-10-04T10:52:14.523Z,13.50
2022-10-04T10:54:41.580Z,13.60
2022-10-04T10:57:12.727Z,13.80
2022-10-04T10:59:55.375Z,13.90
2022-10-04T11:02:49.439Z,14.10
2022-10-04T11:05:49.159Z,14.20
2022-10-04T11:08:44.734Z,14.30
2022-10-04T11:11:41.871Z,14.40
2022-10-04T11:14:46.845Z,14.40
2022-10-04T11:17:36.050Z,14.40
2022-10-04T11:20:24.631Z,14.40
2022-10-04T11:22:51.765Z,14.30
2022-10-04T11:26:03.003Z,14.30
2022-10-04T11:29:12.572Z,14.30
2022-10-04T11:31:45.853Z,14.30
2022-10-04T11:34:38.056Z,14.30
2022-10-04T11:37:05.198Z,14.30
2022-10-04T11:39:53.555Z,14.30
2022-10-04T11:42:39.049Z,14.30
2022-10-04T11:45:27.183Z,14.30
2022-10-04T11:48:11.288Z,14.40
2022-10-04T11:50:51.196Z,14.40
2022-10-04T11:53:32.229Z,14.40
2022-10-04T11:56:19.475Z,14.40
2022-10-04T11:59:18.420Z,14.40
2022-10-04T12:01:52.917Z,14.30
2022-10-04T12:04:35.161Z,14.30
2022-10-04T12:07:11.474Z,14.40
2022-10-04T12:10:01.075Z,14.40
2022-10-04T12:12:59.532Z,14.40
2022-10-04T12:16:08.641Z,14.40
2022-10-04T12:18:46.380Z,14.50
2022-10-04T12:21:34.795Z,14.50
2022-10-04T12:24:04.748Z,14.70
2022-10-04T12:26:41.419Z,14.80
2022-10-04T12:29:27.728Z,14.80
2022-10-04T12:31:59.761Z,14.90
2022-10-04T12:34:31.830Z,14.90
2022-10-04T12:37:33.963Z,15.00
2022-10-04T12:40:08.565Z,15.00
2022-10-04T12:42:45.675Z,15.00
2022-10-04T12:45:20.064Z,15.00
2022-10-04T12:48:18.443Z,14.90
2022-10-04T12:50:54.971Z,14.90
2022-10-04T12:53:32.004Z,14.90
2022-10-04T12:56:22.086Z,14.90
2022-10-04T12:58:57.570Z,14.90
2022-10-04T13:01:27.389Z,14.90
2022-10-04T13:03:54.964Z,14.90
2022-10-04T13:06:28.478Z,15.00
2022-10-04T13:09:25.494Z,15.00
2022-10-04T13:12:22.705Z,15.00
2022-10-04T13:15:02.082Z,15.10
2022-10-04T13:17:38.603Z,15.10
2022-10-04T13:20:26.105Z,15.20
2022-10-04T13:23:01.808Z,15.30
2022-10-04T13:25:47.468Z,15.40
2022-10-04T13:28:55.207Z,15.40
2022-10-04T13:31:34.834Z,15.50
2022-10-04T13:34:22.414Z,15.40
2022-10-04T13:37:20.415Z,15.50
2022-10-04T13:40:21.775Z,15.50
2022-10-04T13:42:57.720Z,15.50
2022-10-04T13:45:57.565Z,15.50
2022-10-04T13:48:30.795Z,15.50
2022-10-04T13:51:03.964Z,15.60
2022-10-04T13:53:58.749Z,15.60
2022-10-04T13:56:37.822Z,15.60
2022-10-04T13:59:34.972Z,15.60
2022-10-04T14:02:26.753Z,15.60
2022-10-04T14:05:17.175Z,15.60
2022-10-04T14:08:09.020Z,15.60
2022-10-04T14:10:57.886Z,15.60
2022-10-04T14:13:57.172Z,15.40
2022-10-04T14:16:51.247Z,15.40
2022-10-04T14:19:37.164Z,15.40
2022-10-04T14:22:24.582Z,15.40
2022-10-04T14:25:21.336Z,15.40
2022-10-04T14:28:17.239Z,15.30
2022-10-04T14:31:00.073Z,15.30
2022-10-04T14:33:56.438Z,15.30
2022-10-04T14:36:44.957Z,15.30
2022-10-04T14:39:36.263Z,15.20
2022-10-04T14:42:40.474Z,15.20
2022-10-04T14:45:35.116Z,15.10
2022-10-04T14:48:17.975Z,15.10
2022-10-04T14:50:51.035Z,15.10
2022-10-04T14:53:40.812Z,15.00
2022-10-04T14:56:31.249Z,14.90
2022-10-04T14:59:22.343Z,14.90
2022-10-04T15:02:13.046Z,14.80
2022-10-04T15:04:51.344Z,14.80
2022-10-04T15:07:22.738Z,14.80
2022-10-04T15:09:49.809Z,14.70
2022-10-04T15:12:51.988Z,14.60
2022-10-04T15:15:19.121Z,14.60
2022-10-04T15:17:52.449Z,14.50
2022-10-04T15:20:30.202Z,14.50
2022-10-04T15:23:09.034Z,14.50
2022-10-04T15:25:37.295Z,14.40
2022-10-04T15:28:06.899Z,14.40
2022-10-04T15:30:59.343Z,14.30
2022-10-04T15:33:55.506Z,14.30
2022-10-04T15:36:48.812Z,14.20
2022-10-04T15:39:26.201Z,14.20
2022-10-04T15:42:25.215Z,14.10
2022-10-04T15:45:01.351Z,14.00
2022-10-04T15:47:53.758Z,14.00
2022-10-04T15:50:29.340Z,13.90
2022-10-04T15:53:47.366Z,13.90
2022-10-04T15:56:35.919Z,13.80
2022-10-04T15:59:21.962Z,13.80
2022-10-04T16:02:09.902Z,13.70
2022-10-04T16:04:55.942Z,13.70
2022-10-04T16:07:41.227Z,13.60
2022-10-04T16:10:18.035Z,13.60
2022-10-04T16:13:07.075Z,13.50
2022-10-04T16:15:38.535Z,13.40
2022-10-04T16:18:40.393Z,13.40
2022-10-04T16:21:16.527Z,13.30
2022-10-04T16:23:44.339Z,13.20
2022-10-04T16:26:18.306Z,13.10
2022-10-04T16:28:53.256Z,13.10
2022-10-04T16:31:45.351Z,13.00
2022-10-04T16:34:35.140Z,13.00
2022-10-04T16:37:24.212Z,12.90
2022-10-04T16:39:59.651Z,12.80
2022-10-04T16:42:40.603Z,12.80
2022-10-04T16:45:07.928Z,12.70
2022-10-04T16:47:47.894Z,12.60
2022-10-04T16:50:36.107Z,12.60
2022-10-04T16:53:20.650Z,12.50
2022-10-04T16:56:00.539Z,12.50
2022-10-04T16:58:27.712Z,12.40
2022-10-04T17:01:22.810Z,12.30
2022-10-04T17:03:54.365Z,12.30
2022-10-04T17:06:33.743Z,12.20
2022-10-04T17:09:17.513Z,12.10
2022-10-04T17:11:48.117Z,12.10
2022-10-04T17:14:39.534Z,12.00
2022-10-04T17:17:22.882Z,12.00
2022-10-04T17:20:31.551Z,11.90
2022-10-04T17:23:03.632Z,11.80
2022-10-04T17:25:46.677Z,11.70
2022-10-04T17:28:24.110Z,11.70
2022-10-04T17:30:55.221Z,11.60
2022-10-04T17:33:46.080Z,11.60
2022-10-04T17:36:22.087Z,11.50
2022-10-04T17:39:10.204Z,11.40
2022-10-04T17:41:56.436Z,11.40
2022-10-04T17:44:38.270Z,11.30
2022-10-04T17:47:56.270Z,11.30
2022-10-04T17:51:10.965Z,11.30
2022-10-04T17:53:58.161Z,11.20
2022-10-04T17:56:33.123Z,11.20
2022-10-04T17:59:00.307Z,11.10
2022-10-04T18:01:48.567Z,11.10
2022-10-04T18:04:21.205Z,11.00
2022-10-04T18:06:50.327Z,11.00
2022-10-04T18:09:42.368Z,10.90
2022-10-04T18:12:29.647Z,10.90
2022-10-04T18:15:22.378Z,10.90
2022-10-04T18:17:49.634Z,10.90
2022-10-04T18:20:27.625Z,10.90
2022-10-04T18:23:04.014Z,10.80
2022-10-04T18:25:32.040Z,10.80
2022-10-04T18:28:11.288Z,10.80
2022-10-04T18:30:53.834Z,10.70
2022-10-04T18:33:26.850Z,10.70
2022-10-04T18:36:00.803Z,10.70
2022-10-04T18:38:28.584Z,10.70
2022-10-04T18:41:16.035Z,10.70
2022-10-04T18:43:58.533Z,10.60
2022-10-04T18:46:25.982Z,10.60
2022-10-04T18:48:54.306Z,10.60
2022-10-04T18:51:39.976Z,10.50
2022-10-04T18:54:48.986Z,10.50
2022-10-04T18:57:26.178Z,10.40
2022-10-04T19:00:22.475Z,10.40
2022-10-04T19:03:02.528Z,10.40
2022-10-04T19:05:51.473Z,10.40
2022-10-04T19:08:34.387Z,10.40
2022-10-04T19:11:22.619Z,10.40
2022-10-04T19:14:02.717Z,10.40
2022-10-04T19:17:05.490Z,10.40
2022-10-04T19:19:51.950Z,10.40
2022-10-04T19:23:00.774Z,10.30
2022-10-04T19:25:39.164Z,10.30
2022-10-04T19:28:13.215Z,10.20
2022-10-04T19:31:01.343Z,10.20
2022-10-04T19:33:47.507Z,10.10
2022-10-04T19:36:33.753Z,10.10
2022-10-04T19:39:26.199Z,10.10
2022-10-04T19:42:14.506Z,10.10
2022-10-04T19:45:08.497Z,10.00
2022-10-04T19:47:49.005Z,9.90
2022-10-04T19:50:25.998Z,9.90
2022-10-04T19:52:54.997Z,9.90
2022-10-04T19:55:43.634Z,9.90
2022-10-04T19:58:31.967Z,10.00
2022-10-04T20:00:59.557Z,9.90
2022-10-04T20:03:26.875Z,9.80
2022-10-04T20:05:54.646Z,9.80
2022-10-04T20:08:44.332Z,9.90
2022-10-04T20:11:28.070Z,9.80
2022-10-04T20:14:07.291Z,9.80
2022-10-04T20:16:46.641Z,9.80
2022-10-04T20:19:22.562Z,9.80
2022-10-04T20:21:49.790Z,9.70
2022-10-04T20:24:18.393Z,9.70
2022-10-04T20:27:06.005Z,9.70
2022-10-04T20:29:39.301Z,9.70
2022-10-04T20:32:06.944Z,9.70
2022-10-04T20:34:37.192Z,9.60
2022-10-04T20:37:10.472Z,9.60
2022-10-04T20:39:40.846Z,9.70
2022-10-04T20:42:28.684Z,9.60
2022-10-04T20:45:00.548Z,9.60
2022-10-04T20:47:41.704Z,9.60
2022-10-04T20:50:20.535Z,9.60
2022-10-04T20:52:57.015Z,9.60
2022-10-04T20:55:31.823Z,9.60
2022-10-04T20:58:03.811Z,9.50
2022-10-04T21:00:35.703Z,9.50
2022-10-04T21:03:16.975Z,9.50
2022-10-04T21:05:48.747Z,9.50
2022-10-04T21:08:23.394Z,9.50
2022-10-04T21:11:16.958Z,9.50
2022-10-04T21:13:58.874Z,9.50
2022-10-04T21:16:48.453Z,9.50
2022-10-04T21:19:35.641Z,9.40
2022-10-04T21:22:04.100Z,9.40
2022-10-04T21:24:49.231Z,9.40
2022-10-04T21:27:32.766Z,9.40
2022-10-04T21:30:00.887Z,9.30
2022-10-04T21:32:28.311Z,9.30
2022-10-04T21:34:55.529Z,9.30
2022-10-04T21:37:22.726Z,9.30
2022-10-04T21:39:49.882Z,9.30
2022-10-04T21:42:17.227Z,9.30
2022-10-04T21:44:44.408Z,9.30
2022-10-04T21:47:11.591Z,9.30
2022-10-04T21:49:38.742Z,9.20
2022-10-04T21:52:06.054Z,9.20
2022-10-04T21:54:33.552Z,9.20
2022-10-04T21:57:00.711Z,9.30
2022-10-04T21:59:27.890Z,9.20
2022-10-04T22:01:55.077Z,9.20
2022-10-04T22:04:22.294Z,9.20
2022-10-04T22:06:49.761Z,9.20
2022-10-04T22:09:17.036Z,9.20
2022-10-04T22:11:44.220Z,9.20
2022-10-04T22:14:11.378Z,9.20
2022-10-04T22:16:38.601Z,9.10
2022-10-04T22:19:05.838Z,9.10
2022-10-04T22:21:33.106Z,9.10
2022-10-04T22:24:00.361Z,9.10
2022-10-04T22:26:27.604Z,9.10
2022-10-04T22:28:55.412Z,9.10
2022-10-04T22:31:25.901Z,9.00
2022-10-04T22:33:53.198Z,9.00
2022-10-04T22:36:31.044Z,9.00
2022-10-04T22:38:58.979Z,8.90
2022-10-04T22:41:37.368Z,8.90
2022-10-04T22:44:15.696Z,8.90
2022-10-04T22:46:48.316Z,8.90
2022-10-04T22:49:16.944Z,8.80
2022-10-04T22:51:44.570Z,8.80
2022-10-04T22:54:25.510Z,8.80
2022-10-04T22:56:53.011Z,8.90
2022-10-04T22:59:20.983Z,8.90
2022-10-04T23:01:48.312Z,8.80
2022-10-04T23:04:17.168Z,8.80
2022-10-04T23:06:44.642Z,8.80
2022-10-04T23:09:12.023Z,8.80
2022-10-04T23:11:39.182Z,8.70
2022-10-04T23:14:06.330Z,8.70
2022-10-04T23:16:33.541Z,8.70
2022-10-04T23:19:12.055Z,8.70
2022-10-04T23:21:39.923Z,8.70
2022-10-04T23:24:24.963Z,8.70
2022-10-04T23:26:56.204Z,8.60
2022-10-04T23:29:25.099Z,8.70
2022-10-04T23:31:52.629Z,8.60
2022-10-04T23:34:33.722Z,8.60
2022-10-04T23:37:00.923Z,8.60
2022-10-04T23:39:32.707Z,8.60
2022-10-04T23:42:00.091Z,8.60
2022-10-04T23:44:33.475Z,8.60
2022-10-04T23:47:00.933Z,8.60
2022-10-04T23:49:28.106Z,8.50
2022-10-04T23:51:58.737Z,8.60
2022-10-04T23:54:26.393Z,8.60
2022-10-04T23:56:53.596Z,8.60
2022-10-04T23:59:22.191Z,8.50
